San Antonio de los Cobres, Argentina
Current Conditions -  °F | °C
As of 4:00 AM on Friday 19 Dec 2014 (Local Time) from SASA Reporting Station
Scattered Clouds Scattered Clouds  
Wind Chill: 17°   Ceiling: Unl
Heat Index: 17°   Visibility: 6mi
Dew Point: 16°   Wind: 2mph
Humidity: 94%   Direction: 360°N
Pressure: 29.97"   Gusts: NA
Location:  24.18°S, 66.35°W
Report Text: SASA 190700Z 36002KT 9999 SCT020 17/16 Q1015
Loading
Personal Weather Stations






























Interactive Weather Map New forecast layout! Learn more

10-Day Weather Forecast

Advertisements
Track Severe Weather on mobile